sensor_id;sensor_type;location;lat;lon;timestamp;temperature;humidity
13806;DHT22;6974;53.606;9.872;2022-07-11T00:01:36;14.60;99.90
13806;DHT22;6974;53.606;9.872;2022-07-11T00:04:03;14.60;99.90
13806;DHT22;6974;53.606;9.872;2022-07-11T00:06:30;14.60;99.90
13806;DHT22;6974;53.606;9.872;2022-07-11T00:08:58;14.60;99.90
13806;DHT22;6974;53.606;9.872;2022-07-11T00:11:25;14.50;99.90
13806;DHT22;6974;53.606;9.872;2022-07-11T00:13:51;14.50;99.90
13806;DHT22;6974;53.606;9.872;2022-07-11T00:16:18;14.50;99.90
13806;DHT22;6974;53.606;9.872;2022-07-11T00:18:45;14.50;99.90
13806;DHT22;6974;53.606;9.872;2022-07-11T00:21:12;14.40;99.90
13806;DHT22;6974;53.606;9.872;2022-07-11T00:23:39;14.40;99.90
13806;DHT22;6974;53.606;9.872;2022-07-11T00:26:07;14.40;99.90
13806;DHT22;6974;53.606;9.872;2022-07-11T00:28:34;14.40;99.90
13806;DHT22;6974;53.606;9.872;2022-07-11T00:31:01;14.30;99.90
13806;DHT22;6974;53.606;9.872;2022-07-11T00:33:28;14.30;99.90
13806;DHT22;6974;53.606;9.872;2022-07-11T00:35:54;14.30;99.90
13806;DHT22;6974;53.606;9.872;2022-07-11T00:38:21;14.30;99.90
13806;DHT22;6974;53.606;9.872;2022-07-11T00:40:48;14.30;99.90
13806;DHT22;6974;53.606;9.872;2022-07-11T00:43:16;14.20;99.90
13806;DHT22;6974;53.606;9.872;2022-07-11T00:45:47;14.20;99.90
13806;DHT22;6974;53.606;9.872;2022-07-11T00:48:14;14.10;99.90
13806;DHT22;6974;53.606;9.872;2022-07-11T00:50:40;14.20;99.90
13806;DHT22;6974;53.606;9.872;2022-07-11T00:53:08;14.10;99.90
13806;DHT22;6974;53.606;9.872;2022-07-11T00:55:35;14.20;99.90
13806;DHT22;6974;53.606;9.872;2022-07-11T00:58:01;14.10;99.90
13806;DHT22;6974;53.606;9.872;2022-07-11T01:00:30;14.10;99.90
13806;DHT22;6974;53.606;9.872;2022-07-11T01:02:57;14.10;99.90
13806;DHT22;6974;53.606;9.872;2022-07-11T01:05:24;14.10;99.90
13806;DHT22;6974;53.606;9.872;2022-07-11T01:07:50;14.10;99.90
13806;DHT22;6974;53.606;9.872;2022-07-11T01:10:17;14.10;99.90
13806;DHT22;6974;53.606;9.872;2022-07-11T01:12:44;14.10;99.90
13806;DHT22;6974;53.606;9.872;2022-07-11T01:15:14;14.10;99.90
13806;DHT22;6974;53.606;9.872;2022-07-11T01:17:42;14.00;99.90
13806;DHT22;6974;53.606;9.872;2022-07-11T01:20:09;14.00;99.90
13806;DHT22;6974;53.606;9.872;2022-07-11T01:22:40;14.00;99.90
13806;DHT22;6974;53.606;9.872;2022-07-11T01:25:11;14.00;99.90
13806;DHT22;6974;53.606;9.872;2022-07-11T01:27:55;14.00;99.90
13806;DHT22;6974;53.606;9.872;2022-07-11T01:30:22;14.00;99.90
13806;DHT22;6974;53.606;9.872;2022-07-11T01:32:50;14.00;99.90
13806;DHT22;6974;53.606;9.872;2022-07-11T01:35:17;14.00;99.90
13806;DHT22;6974;53.606;9.872;2022-07-11T01:37:44;14.00;99.90
13806;DHT22;6974;53.606;9.872;2022-07-11T01:40:12;13.90;99.90
13806;DHT22;6974;53.606;9.872;2022-07-11T01:42:40;13.90;99.90
13806;DHT22;6974;53.606;9.872;2022-07-11T01:45:08;13.90;99.90
13806;DHT22;6974;53.606;9.872;2022-07-11T01:47:35;13.90;99.90
13806;DHT22;6974;53.606;9.872;2022-07-11T01:50:02;13.90;99.90
13806;DHT22;6974;53.606;9.872;2022-07-11T01:52:29;13.90;99.90
13806;DHT22;6974;53.606;9.872;2022-07-11T01:54:56;13.80;99.90
13806;DHT22;6974;53.606;9.872;2022-07-11T01:57:24;13.80;99.90
13806;DHT22;6974;53.606;9.872;2022-07-11T01:59:51;13.80;99.90
13806;DHT22;6974;53.606;9.872;2022-07-11T02:02:17;13.80;99.90
13806;DHT22;6974;53.606;9.872;2022-07-11T02:04:44;13.80;99.90
13806;DHT22;6974;53.606;9.872;2022-07-11T02:07:11;13.80;99.90
13806;DHT22;6974;53.606;9.872;2022-07-11T02:09:40;13.80;99.90
13806;DHT22;6974;53.606;9.872;2022-07-11T02:12:08;13.70;99.90
13806;DHT22;6974;53.606;9.872;2022-07-11T02:14:36;13.70;99.90
13806;DHT22;6974;53.606;9.872;2022-07-11T02:17:03;13.80;99.90
13806;DHT22;6974;53.606;9.872;2022-07-11T02:19:30;13.80;99.90
13806;DHT22;6974;53.606;9.872;2022-07-11T02:21:56;13.80;99.90
13806;DHT22;6974;53.606;9.872;2022-07-11T02:24:31;13.80;99.90
13806;DHT22;6974;53.606;9.872;2022-07-11T02:26:58;13.80;99.90
13806;DHT22;6974;53.606;9.872;2022-07-11T02:29:24;13.80;99.90
13806;DHT22;6974;53.606;9.872;2022-07-11T02:31:53;13.70;99.90
13806;DHT22;6974;53.606;9.872;2022-07-11T02:34:19;13.70;99.90
13806;DHT22;6974;53.606;9.872;2022-07-11T02:36:46;13.70;99.90
13806;DHT22;6974;53.606;9.872;2022-07-11T02:39:13;13.60;99.90
13806;DHT22;6974;53.606;9.872;2022-07-11T02:41:40;13.60;99.90
13806;DHT22;6974;53.606;9.872;2022-07-11T02:44:06;13.70;99.90
13806;DHT22;6974;53.606;9.872;2022-07-11T02:46:33;13.50;99.90
13806;DHT22;6974;53.606;9.872;2022-07-11T02:49:01;13.60;99.90
13806;DHT22;6974;53.606;9.872;2022-07-11T02:51:28;13.50;99.90
13806;DHT22;6974;53.606;9.872;2022-07-11T02:53:55;13.50;99.90
13806;DHT22;6974;53.606;9.872;2022-07-11T02:56:22;13.50;99.90
13806;DHT22;6974;53.606;9.872;2022-07-11T02:58:49;13.50;99.90
13806;DHT22;6974;53.606;9.872;2022-07-11T03:01:16;13.50;99.90
13806;DHT22;6974;53.606;9.872;2022-07-11T03:03:45;13.60;99.90
13806;DHT22;6974;53.606;9.872;2022-07-11T03:06:13;13.60;99.90
13806;DHT22;6974;53.606;9.872;2022-07-11T03:08:40;13.60;99.90
13806;DHT22;6974;53.606;9.872;2022-07-11T03:11:07;13.60;99.90
13806;DHT22;6974;53.606;9.872;2022-07-11T03:13:33;13.60;99.90
13806;DHT22;6974;53.606;9.872;2022-07-11T03:16:01;13.60;99.90
13806;DHT22;6974;53.606;9.872;2022-07-11T03:18:28;13.60;99.90
13806;DHT22;6974;53.606;9.872;2022-07-11T03:20:55;13.70;99.90
13806;DHT22;6974;53.606;9.872;2022-07-11T03:23:23;13.60;99.90
13806;DHT22;6974;53.606;9.872;2022-07-11T03:25:50;13.60;99.90
13806;DHT22;6974;53.606;9.872;2022-07-11T03:28:16;13.70;99.90
13806;DHT22;6974;53.606;9.872;2022-07-11T03:30:43;13.60;99.90
13806;DHT22;6974;53.606;9.872;2022-07-11T03:33:10;13.60;99.90
13806;DHT22;6974;53.606;9.872;2022-07-11T03:35:37;13.50;99.90
13806;DHT22;6974;53.606;9.872;2022-07-11T03:38:10;13.50;99.90
13806;DHT22;6974;53.606;9.872;2022-07-11T03:40:39;13.50;99.90
13806;DHT22;6974;53.606;9.872;2022-07-11T03:43:06;13.50;99.90
13806;DHT22;6974;53.606;9.872;2022-07-11T03:45:33;13.50;99.90
13806;DHT22;6974;53.606;9.872;2022-07-11T03:47:59;13.50;99.90
13806;DHT22;6974;53.606;9.872;2022-07-11T03:50:26;13.50;99.90
13806;DHT22;6974;53.606;9.872;2022-07-11T03:52:53;13.50;99.90
13806;DHT22;6974;53.606;9.872;2022-07-11T03:55:20;13.50;99.90
13806;DHT22;6974;53.606;9.872;2022-07-11T03:57:48;13.50;99.90
13806;DHT22;6974;53.606;9.872;2022-07-11T04:00:15;13.50;99.90
13806;DHT22;6974;53.606;9.872;2022-07-11T04:02:42;13.60;99.90
13806;DHT22;6974;53.606;9.872;2022-07-11T04:05:09;13.50;99.90
13806;DHT22;6974;53.606;9.872;2022-07-11T04:07:36;13.50;99.90
13806;DHT22;6974;53.606;9.872;2022-07-11T04:10:03;13.60;99.90
13806;DHT22;6974;53.606;9.872;2022-07-11T04:12:30;13.60;99.90
13806;DHT22;6974;53.606;9.872;2022-07-11T04:14:58;13.60;99.90
13806;DHT22;6974;53.606;9.872;2022-07-11T04:17:25;13.60;99.90
13806;DHT22;6974;53.606;9.872;2022-07-11T04:19:52;13.60;99.90
13806;DHT22;6974;53.606;9.872;2022-07-11T04:22:19;13.70;99.90
13806;DHT22;6974;53.606;9.872;2022-07-11T04:24:46;13.70;99.90
13806;DHT22;6974;53.606;9.872;2022-07-11T04:27:13;13.70;99.90
13806;DHT22;6974;53.606;9.872;2022-07-11T04:29:39;13.70;99.90
13806;DHT22;6974;53.606;9.872;2022-07-11T04:32:08;13.80;99.90
13806;DHT22;6974;53.606;9.872;2022-07-11T04:34:35;13.80;99.90
13806;DHT22;6974;53.606;9.872;2022-07-11T04:37:02;13.90;99.90
13806;DHT22;6974;53.606;9.872;2022-07-11T04:39:30;13.90;99.90
13806;DHT22;6974;53.606;9.872;2022-07-11T04:41:57;14.00;99.90
13806;DHT22;6974;53.606;9.872;2022-07-11T04:44:26;14.00;99.90
13806;DHT22;6974;53.606;9.872;2022-07-11T04:46:53;14.00;99.90
13806;DHT22;6974;53.606;9.872;2022-07-11T04:49:21;14.10;99.90
13806;DHT22;6974;53.606;9.872;2022-07-11T04:51:48;14.10;99.90
13806;DHT22;6974;53.606;9.872;2022-07-11T04:54:14;14.20;99.90
13806;DHT22;6974;53.606;9.872;2022-07-11T04:56:42;14.20;99.90
13806;DHT22;6974;53.606;9.872;2022-07-11T04:59:09;14.30;99.90
13806;DHT22;6974;53.606;9.872;2022-07-11T05:01:36;14.30;99.90
13806;DHT22;6974;53.606;9.872;2022-07-11T05:04:03;14.40;99.90
13806;DHT22;6974;53.606;9.872;2022-07-11T05:06:31;14.40;99.90
13806;DHT22;6974;53.606;9.872;2022-07-11T05:08:58;14.50;99.90
13806;DHT22;6974;53.606;9.872;2022-07-11T05:11:25;14.60;99.90
13806;DHT22;6974;53.606;9.872;2022-07-11T05:13:52;14.60;99.90
13806;DHT22;6974;53.606;9.872;2022-07-11T05:16:19;14.70;99.90
13806;DHT22;6974;53.606;9.872;2022-07-11T05:18:46;14.70;99.90
13806;DHT22;6974;53.606;9.872;2022-07-11T05:21:12;14.70;99.90
13806;DHT22;6974;53.606;9.872;2022-07-11T05:23:41;14.80;99.90
13806;DHT22;6974;53.606;9.872;2022-07-11T05:26:07;14.90;99.90
13806;DHT22;6974;53.606;9.872;2022-07-11T05:28:35;14.90;99.90
13806;DHT22;6974;53.606;9.872;2022-07-11T05:31:02;14.90;99.90
13806;DHT22;6974;53.606;9.872;2022-07-11T05:33:29;14.90;99.90
13806;DHT22;6974;53.606;9.872;2022-07-11T05:35:56;15.00;99.90
13806;DHT22;6974;53.606;9.872;2022-07-11T05:38:22;15.00;99.90
13806;DHT22;6974;53.606;9.872;2022-07-11T05:40:51;15.10;99.90
13806;DHT22;6974;53.606;9.872;2022-07-11T05:43:17;15.10;99.90
13806;DHT22;6974;53.606;9.872;2022-07-11T05:45:44;15.20;99.90
13806;DHT22;6974;53.606;9.872;2022-07-11T05:48:11;15.20;99.90
13806;DHT22;6974;53.606;9.872;2022-07-11T05:50:38;15.20;99.90
13806;DHT22;6974;53.606;9.872;2022-07-11T05:53:05;15.30;99.90
13806;DHT22;6974;53.606;9.872;2022-07-11T05:55:32;15.30;99.90
13806;DHT22;6974;53.606;9.872;2022-07-11T05:58:01;15.40;99.90
13806;DHT22;6974;53.606;9.872;2022-07-11T06:00:28;15.50;99.90
13806;DHT22;6974;53.606;9.872;2022-07-11T06:02:54;15.50;99.90
13806;DHT22;6974;53.606;9.872;2022-07-11T06:05:21;15.60;99.90
13806;DHT22;6974;53.606;9.872;2022-07-11T06:07:48;15.50;99.90
13806;DHT22;6974;53.606;9.872;2022-07-11T06:10:32;15.60;99.90
13806;DHT22;6974;53.606;9.872;2022-07-11T06:13:01;15.70;99.90
13806;DHT22;6974;53.606;9.872;2022-07-11T06:15:27;15.70;99.90
13806;DHT22;6974;53.606;9.872;2022-07-11T06:17:54;15.80;99.90
13806;DHT22;6974;53.606;9.872;2022-07-11T06:20:21;15.80;99.90
13806;DHT22;6974;53.606;9.872;2022-07-11T06:22:48;15.80;99.90
13806;DHT22;6974;53.606;9.872;2022-07-11T06:25:15;15.90;99.90
13806;DHT22;6974;53.606;9.872;2022-07-11T06:27:42;15.90;99.90
13806;DHT22;6974;53.606;9.872;2022-07-11T06:30:10;16.00;99.90
13806;DHT22;6974;53.606;9.872;2022-07-11T06:32:39;16.10;99.90
13806;DHT22;6974;53.606;9.872;2022-07-11T06:35:06;16.10;99.90
13806;DHT22;6974;53.606;9.872;2022-07-11T06:37:34;16.20;99.90
13806;DHT22;6974;53.606;9.872;2022-07-11T06:40:01;16.20;99.90
13806;DHT22;6974;53.606;9.872;2022-07-11T06:42:27;16.20;99.90
13806;DHT22;6974;53.606;9.872;2022-07-11T06:44:54;16.30;99.90
13806;DHT22;6974;53.606;9.872;2022-07-11T06:47:22;16.40;99.90
13806;DHT22;6974;53.606;9.872;2022-07-11T06:49:50;16.50;99.90
13806;DHT22;6974;53.606;9.872;2022-07-11T06:52:17;16.40;99.90
13806;DHT22;6974;53.606;9.872;2022-07-11T06:54:44;16.40;99.90
13806;DHT22;6974;53.606;9.872;2022-07-11T06:57:11;16.40;99.90
13806;DHT22;6974;53.606;9.872;2022-07-11T06:59:37;16.50;99.90
13806;DHT22;6974;53.606;9.872;2022-07-11T07:02:04;16.50;99.90
13806;DHT22;6974;53.606;9.872;2022-07-11T07:04:32;16.40;99.90
13806;DHT22;6974;53.606;9.872;2022-07-11T07:06:59;16.50;99.90
13806;DHT22;6974;53.606;9.872;2022-07-11T07:09:27;16.60;99.90
13806;DHT22;6974;53.606;9.872;2022-07-11T07:11:54;16.60;99.90
13806;DHT22;6974;53.606;9.872;2022-07-11T07:14:21;16.60;99.90
13806;DHT22;6974;53.606;9.872;2022-07-11T07:16:48;16.70;99.90
13806;DHT22;6974;53.606;9.872;2022-07-11T07:19:15;16.80;99.90
13806;DHT22;6974;53.606;9.872;2022-07-11T07:21:44;16.80;99.90
13806;DHT22;6974;53.606;9.872;2022-07-11T07:24:11;16.80;99.90
13806;DHT22;6974;53.606;9.872;2022-07-11T07:26:37;16.80;99.90
13806;DHT22;6974;53.606;9.872;2022-07-11T07:29:04;16.90;99.90
13806;DHT22;6974;53.606;9.872;2022-07-11T07:31:31;16.80;99.90
13806;DHT22;6974;53.606;9.872;2022-07-11T07:33:58;16.80;99.90
13806;DHT22;6974;53.606;9.872;2022-07-11T07:36:24;16.90;99.90
13806;DHT22;6974;53.606;9.872;2022-07-11T07:38:53;17.00;99.90
13806;DHT22;6974;53.606;9.872;2022-07-11T07:41:19;17.10;99.90
13806;DHT22;6974;53.606;9.872;2022-07-11T07:43:46;17.10;99.90
13806;DHT22;6974;53.606;9.872;2022-07-11T07:46:14;17.10;99.90
13806;DHT22;6974;53.606;9.872;2022-07-11T07:48:41;17.10;99.90
13806;DHT22;6974;53.606;9.872;2022-07-11T07:51:08;17.10;99.90
13806;DHT22;6974;53.606;9.872;2022-07-11T07:53:35;17.10;99.90
13806;DHT22;6974;53.606;9.872;2022-07-11T07:56:04;17.10;99.90
13806;DHT22;6974;53.606;9.872;2022-07-11T07:58:31;17.10;99.90
13806;DHT22;6974;53.606;9.872;2022-07-11T08:00:57;17.20;99.90
13806;DHT22;6974;53.606;9.872;2022-07-11T08:03:42;17.20;99.90
13806;DHT22;6974;53.606;9.872;2022-07-11T08:06:09;17.30;99.90
13806;DHT22;6974;53.606;9.872;2022-07-11T08:08:36;17.40;99.90
13806;DHT22;6974;53.606;9.872;2022-07-11T08:11:04;17.60;99.90
13806;DHT22;6974;53.606;9.872;2022-07-11T08:13:31;17.90;99.90
13806;DHT22;6974;53.606;9.872;2022-07-11T08:15:58;18.00;99.90
13806;DHT22;6974;53.606;9.872;2022-07-11T08:18:25;18.00;99.90
13806;DHT22;6974;53.606;9.872;2022-07-11T08:20:53;18.10;99.90
13806;DHT22;6974;53.606;9.872;2022-07-11T08:23:21;18.10;99.90
13806;DHT22;6974;53.606;9.872;2022-07-11T08:25:48;18.10;99.90
13806;DHT22;6974;53.606;9.872;2022-07-11T08:28:17;18.20;99.90
13806;DHT22;6974;53.606;9.872;2022-07-11T08:30:43;18.20;99.90
13806;DHT22;6974;53.606;9.872;2022-07-11T08:33:11;18.20;99.90
13806;DHT22;6974;53.606;9.872;2022-07-11T08:35:38;18.20;99.90
13806;DHT22;6974;53.606;9.872;2022-07-11T08:38:04;18.30;99.90
13806;DHT22;6974;53.606;9.872;2022-07-11T08:40:31;18.40;99.90
13806;DHT22;6974;53.606;9.872;2022-07-11T08:42:58;18.50;99.90
13806;DHT22;6974;53.606;9.872;2022-07-11T08:45:29;18.70;99.90
13806;DHT22;6974;53.606;9.872;2022-07-11T08:47:57;18.80;99.90
13806;DHT22;6974;53.606;9.872;2022-07-11T08:50:26;18.80;99.90
13806;DHT22;6974;53.606;9.872;2022-07-11T08:52:54;18.80;99.90
13806;DHT22;6974;53.606;9.872;2022-07-11T08:55:21;18.80;99.90
13806;DHT22;6974;53.606;9.872;2022-07-11T08:57:48;19.00;99.90
13806;DHT22;6974;53.606;9.872;2022-07-11T09:00:16;19.10;99.90
13806;DHT22;6974;53.606;9.872;2022-07-11T09:02:44;19.30;99.90
13806;DHT22;6974;53.606;9.872;2022-07-11T09:05:12;19.30;99.90
13806;DHT22;6974;53.606;9.872;2022-07-11T09:07:43;19.20;99.90
13806;DHT22;6974;53.606;9.872;2022-07-11T09:10:10;19.30;99.90
13806;DHT22;6974;53.606;9.872;2022-07-11T09:12:38;19.40;99.90
13806;DHT22;6974;53.606;9.872;2022-07-11T09:15:31;19.50;99.90
13806;DHT22;6974;53.606;9.872;2022-07-11T09:18:00;19.70;99.90
13806;DHT22;6974;53.606;9.872;2022-07-11T09:20:27;19.70;99.90
13806;DHT22;6974;53.606;9.872;2022-07-11T09:23:24;19.60;99.90
13806;DHT22;6974;53.606;9.872;2022-07-11T09:26:08;19.50;99.90
13806;DHT22;6974;53.606;9.872;2022-07-11T09:28:35;19.40;99.90
13806;DHT22;6974;53.606;9.872;2022-07-11T09:31:15;19.40;99.90
13806;DHT22;6974;53.606;9.872;2022-07-11T09:36:36;19.40;99.90
13806;DHT22;6974;53.606;9.872;2022-07-11T09:39:05;19.50;99.90
13806;DHT22;6974;53.606;9.872;2022-07-11T09:41:32;19.50;99.90
13806;DHT22;6974;53.606;9.872;2022-07-11T09:44:11;19.50;99.90
13806;DHT22;6974;53.606;9.872;2022-07-11T09:46:38;19.60;99.90
13806;DHT22;6974;53.606;9.872;2022-07-11T09:49:05;19.80;99.90
13806;DHT22;6974;53.606;9.872;2022-07-11T09:51:34;20.10;99.90
13806;DHT22;6974;53.606;9.872;2022-07-11T09:54:03;20.30;99.90
13806;DHT22;6974;53.606;9.872;2022-07-11T09:56:39;20.50;99.90
13806;DHT22;6974;53.606;9.872;2022-07-11T09:59:08;20.60;99.90
13806;DHT22;6974;53.606;9.872;2022-07-11T10:01:35;20.40;99.90
13806;DHT22;6974;53.606;9.872;2022-07-11T10:04:04;20.40;99.90
13806;DHT22;6974;53.606;9.872;2022-07-11T10:06:31;20.40;99.90
13806;DHT22;6974;53.606;9.872;2022-07-11T10:09:00;20.60;99.90
13806;DHT22;6974;53.606;9.872;2022-07-11T10:11:27;20.70;99.90
13806;DHT22;6974;53.606;9.872;2022-07-11T10:13:54;20.90;99.90
13806;DHT22;6974;53.606;9.872;2022-07-11T10:16:32;20.90;99.90
13806;DHT22;6974;53.606;9.872;2022-07-11T10:19:09;20.70;99.90
13806;DHT22;6974;53.606;9.872;2022-07-11T10:21:42;20.80;99.90
13806;DHT22;6974;53.606;9.872;2022-07-11T10:24:24;21.00;99.90
13806;DHT22;6974;53.606;9.872;2022-07-11T10:26:59;20.90;99.90
13806;DHT22;6974;53.606;9.872;2022-07-11T10:29:31;20.70;99.90
13806;DHT22;6974;53.606;9.872;2022-07-11T10:32:09;20.60;99.90
13806;DHT22;6974;53.606;9.872;2022-07-11T10:34:37;20.60;99.90
13806;DHT22;6974;53.606;9.872;2022-07-11T10:37:06;20.80;99.90
13806;DHT22;6974;53.606;9.872;2022-07-11T10:39:36;21.00;99.90
13806;DHT22;6974;53.606;9.872;2022-07-11T10:42:05;21.20;99.90
13806;DHT22;6974;53.606;9.872;2022-07-11T10:44:48;21.50;99.90
13806;DHT22;6974;53.606;9.872;2022-07-11T10:47:31;21.70;99.90
13806;DHT22;6974;53.606;9.872;2022-07-11T10:50:05;21.70;99.90
13806;DHT22;6974;53.606;9.872;2022-07-11T10:52:34;21.90;99.90
13806;DHT22;6974;53.606;9.872;2022-07-11T10:55:14;21.70;99.90
13806;DHT22;6974;53.606;9.872;2022-07-11T10:57:49;21.50;99.90
13806;DHT22;6974;53.606;9.872;2022-07-11T11:00:20;21.40;99.90
13806;DHT22;6974;53.606;9.872;2022-07-11T11:03:03;21.30;99.90
13806;DHT22;6974;53.606;9.872;2022-07-11T11:05:46;21.20;99.90
13806;DHT22;6974;53.606;9.872;2022-07-11T11:08:40;21.00;99.90
13806;DHT22;6974;53.606;9.872;2022-07-11T11:11:38;20.80;99.90
13806;DHT22;6974;53.606;9.872;2022-07-11T11:14:22;20.60;99.90
13806;DHT22;6974;53.606;9.872;2022-07-11T11:16:50;20.50;99.90
13806;DHT22;6974;53.606;9.872;2022-07-11T11:19:51;20.60;99.90
13806;DHT22;6974;53.606;9.872;2022-07-11T11:22:19;20.80;99.90
13806;DHT22;6974;53.606;9.872;2022-07-11T11:24:48;21.10;99.90
13806;DHT22;6974;53.606;9.872;2022-07-11T11:27:18;21.60;99.90
13806;DHT22;6974;53.606;9.872;2022-07-11T11:29:48;21.80;99.90
13806;DHT22;6974;53.606;9.872;2022-07-11T11:32:15;22.20;99.90
13806;DHT22;6974;53.606;9.872;2022-07-11T11:34:43;22.50;99.90
13806;DHT22;6974;53.606;9.872;2022-07-11T11:37:10;22.70;99.90
13806;DHT22;6974;53.606;9.872;2022-07-11T11:39:38;22.90;99.90
13806;DHT22;6974;53.606;9.872;2022-07-11T11:42:11;23.20;99.90
13806;DHT22;6974;53.606;9.872;2022-07-11T11:44:51;23.30;99.90
13806;DHT22;6974;53.606;9.872;2022-07-11T11:47:19;23.40;99.90
13806;DHT22;6974;53.606;9.872;2022-07-11T11:49:47;23.50;99.90
13806;DHT22;6974;53.606;9.872;2022-07-11T11:52:15;23.70;99.90
13806;DHT22;6974;53.606;9.872;2022-07-11T11:54:42;23.90;99.90
13806;DHT22;6974;53.606;9.872;2022-07-11T11:57:11;24.10;99.90
13806;DHT22;6974;53.606;9.872;2022-07-11T11:59:38;24.00;99.90
13806;DHT22;6974;53.606;9.872;2022-07-11T12:02:08;24.10;99.90
13806;DHT22;6974;53.606;9.872;2022-07-11T12:04:35;24.20;99.90
13806;DHT22;6974;53.606;9.872;2022-07-11T12:07:04;24.20;99.90
13806;DHT22;6974;53.606;9.872;2022-07-11T12:09:31;24.30;99.90
13806;DHT22;6974;53.606;9.872;2022-07-11T12:12:16;24.50;99.90
13806;DHT22;6974;53.606;9.872;2022-07-11T12:15:01;24.70;99.90
13806;DHT22;6974;53.606;9.872;2022-07-11T12:17:29;24.60;99.90
13806;DHT22;6974;53.606;9.872;2022-07-11T12:19:56;24.60;99.90
13806;DHT22;6974;53.606;9.872;2022-07-11T12:22:23;24.60;99.90
13806;DHT22;6974;53.606;9.872;2022-07-11T12:24:52;24.60;99.90
13806;DHT22;6974;53.606;9.872;2022-07-11T12:27:19;24.60;99.90
13806;DHT22;6974;53.606;9.872;2022-07-11T12:29:46;24.70;99.90
13806;DHT22;6974;53.606;9.872;2022-07-11T12:32:17;24.70;99.90
13806;DHT22;6974;53.606;9.872;2022-07-11T12:34:46;24.70;99.90
13806;DHT22;6974;53.606;9.872;2022-07-11T12:37:14;24.50;99.90
13806;DHT22;6974;53.606;9.872;2022-07-11T12:39:47;24.40;99.90
13806;DHT22;6974;53.606;9.872;2022-07-11T12:42:24;24.40;99.90
13806;DHT22;6974;53.606;9.872;2022-07-11T12:44:55;24.30;99.90
13806;DHT22;6974;53.606;9.872;2022-07-11T12:47:26;24.30;99.90
13806;DHT22;6974;53.606;9.872;2022-07-11T12:49:55;24.40;99.90
13806;DHT22;6974;53.606;9.872;2022-07-11T12:52:22;24.60;99.90
13806;DHT22;6974;53.606;9.872;2022-07-11T12:54:49;24.80;99.90
13806;DHT22;6974;53.606;9.872;2022-07-11T12:57:20;24.80;99.90
13806;DHT22;6974;53.606;9.872;2022-07-11T12:59:47;24.90;99.90
13806;DHT22;6974;53.606;9.872;2022-07-11T13:02:14;25.00;99.90
13806;DHT22;6974;53.606;9.872;2022-07-11T13:04:45;25.00;99.90
13806;DHT22;6974;53.606;9.872;2022-07-11T13:07:28;25.00;99.90
13806;DHT22;6974;53.606;9.872;2022-07-11T13:10:14;25.10;99.90
13806;DHT22;6974;53.606;9.872;2022-07-11T13:12:42;25.30;99.90
13806;DHT22;6974;53.606;9.872;2022-07-11T13:15:10;25.10;99.90
13806;DHT22;6974;53.606;9.872;2022-07-11T13:17:39;25.00;99.90
13806;DHT22;6974;53.606;9.872;2022-07-11T13:20:08;24.90;99.90
13806;DHT22;6974;53.606;9.872;2022-07-11T13:22:36;24.70;99.90
13806;DHT22;6974;53.606;9.872;2022-07-11T13:25:04;24.40;99.90
13806;DHT22;6974;53.606;9.872;2022-07-11T13:27:31;24.00;99.90
13806;DHT22;6974;53.606;9.872;2022-07-11T13:29:58;23.70;99.90
13806;DHT22;6974;53.606;9.872;2022-07-11T13:32:25;23.50;99.90
13806;DHT22;6974;53.606;9.872;2022-07-11T13:34:52;23.30;99.90
13806;DHT22;6974;53.606;9.872;2022-07-11T13:37:19;23.20;99.90
13806;DHT22;6974;53.606;9.872;2022-07-11T13:39:47;23.40;99.90
13806;DHT22;6974;53.606;9.872;2022-07-11T13:42:14;23.60;99.90
13806;DHT22;6974;53.606;9.872;2022-07-11T13:44:41;24.00;99.90
13806;DHT22;6974;53.606;9.872;2022-07-11T13:47:07;24.40;99.90
13806;DHT22;6974;53.606;9.872;2022-07-11T13:49:34;24.50;99.90
13806;DHT22;6974;53.606;9.872;2022-07-11T13:52:01;24.60;99.90
13806;DHT22;6974;53.606;9.872;2022-07-11T13:54:28;24.80;99.90
13806;DHT22;6974;53.606;9.872;2022-07-11T13:56:56;25.00;99.90
13806;DHT22;6974;53.606;9.872;2022-07-11T13:59:23;25.20;99.90
13806;DHT22;6974;53.606;9.872;2022-07-11T14:01:50;25.40;99.90
13806;DHT22;6974;53.606;9.872;2022-07-11T14:04:19;25.40;99.90
13806;DHT22;6974;53.606;9.872;2022-07-11T14:06:45;25.20;99.90
13806;DHT22;6974;53.606;9.872;2022-07-11T14:09:12;25.10;99.90
13806;DHT22;6974;53.606;9.872;2022-07-11T14:11:39;25.10;99.90
13806;DHT22;6974;53.606;9.872;2022-07-11T14:14:07;25.20;99.90
13806;DHT22;6974;53.606;9.872;2022-07-11T14:16:34;25.50;99.90
13806;DHT22;6974;53.606;9.872;2022-07-11T14:19:01;25.70;99.90
13806;DHT22;6974;53.606;9.872;2022-07-11T14:21:30;25.80;99.90
13806;DHT22;6974;53.606;9.872;2022-07-11T14:23:57;25.80;99.90
13806;DHT22;6974;53.606;9.872;2022-07-11T14:26:24;25.90;99.90
13806;DHT22;6974;53.606;9.872;2022-07-11T14:28:51;25.90;99.90
13806;DHT22;6974;53.606;9.872;2022-07-11T14:31:19;25.50;99.90
13806;DHT22;6974;53.606;9.872;2022-07-11T14:33:48;25.20;99.90
13806;DHT22;6974;53.606;9.872;2022-07-11T14:36:15;24.90;99.90
13806;DHT22;6974;53.606;9.872;2022-07-11T14:38:42;24.90;99.90
13806;DHT22;6974;53.606;9.872;2022-07-11T14:41:11;25.10;99.90
13806;DHT22;6974;53.606;9.872;2022-07-11T14:43:37;25.20;99.90
13806;DHT22;6974;53.606;9.872;2022-07-11T14:46:05;25.40;99.90
13806;DHT22;6974;53.606;9.872;2022-07-11T14:48:34;25.40;99.90
13806;DHT22;6974;53.606;9.872;2022-07-11T14:51:03;25.40;99.90
13806;DHT22;6974;53.606;9.872;2022-07-11T14:53:30;25.60;99.90
13806;DHT22;6974;53.606;9.872;2022-07-11T14:55:57;25.40;99.90
13806;DHT22;6974;53.606;9.872;2022-07-11T14:58:24;25.00;99.90
13806;DHT22;6974;53.606;9.872;2022-07-11T15:00:51;24.70;99.90
13806;DHT22;6974;53.606;9.872;2022-07-11T15:03:18;24.60;99.90
13806;DHT22;6974;53.606;9.872;2022-07-11T15:06:04;24.70;99.90
13806;DHT22;6974;53.606;9.872;2022-07-11T15:08:31;24.90;99.90
13806;DHT22;6974;53.606;9.872;2022-07-11T15:11:15;25.10;99.90
13806;DHT22;6974;53.606;9.872;2022-07-11T15:13:59;25.20;99.90
13806;DHT22;6974;53.606;9.872;2022-07-11T15:16:26;25.40;99.90
13806;DHT22;6974;53.606;9.872;2022-07-11T15:18:53;25.50;99.90
13806;DHT22;6974;53.606;9.872;2022-07-11T15:21:21;25.70;99.90
13806;DHT22;6974;53.606;9.872;2022-07-11T15:23:49;25.90;99.90
13806;DHT22;6974;53.606;9.872;2022-07-11T15:26:16;26.10;99.90
13806;DHT22;6974;53.606;9.872;2022-07-11T15:28:43;26.00;99.90
13806;DHT22;6974;53.606;9.872;2022-07-11T15:31:10;25.80;99.90
13806;DHT22;6974;53.606;9.872;2022-07-11T15:33:37;25.60;99.90
13806;DHT22;6974;53.606;9.872;2022-07-11T15:36:05;25.40;99.90
13806;DHT22;6974;53.606;9.872;2022-07-11T15:38:33;25.40;99.90
13806;DHT22;6974;53.606;9.872;2022-07-11T15:41:00;25.60;99.90
13806;DHT22;6974;53.606;9.872;2022-07-11T15:43:28;25.70;99.90
13806;DHT22;6974;53.606;9.872;2022-07-11T15:45:55;25.70;99.90
13806;DHT22;6974;53.606;9.872;2022-07-11T15:48:23;25.70;99.90
13806;DHT22;6974;53.606;9.872;2022-07-11T15:50:49;25.60;99.90
13806;DHT22;6974;53.606;9.872;2022-07-11T15:53:17;25.50;99.90
13806;DHT22;6974;53.606;9.872;2022-07-11T15:55:45;25.60;99.90
13806;DHT22;6974;53.606;9.872;2022-07-11T15:58:12;25.70;99.90